Don Juan — WRB6521 — position and weather

sailwx.info

Track history (hours):
 
Tides and Currents Weather Stations Pressure Air Temp Water Temp Dewpoint Dewpoint Depression Visibility Wind Speed Wind Dir Waves Ship Positions

Don Juan

Owner: LYDDON, JOHN A, Bakersfield, CA. More information available from US FCC via Universal Licensing System and Coast Guard Vessel Documentation Center.

Last reported at 2017-Oct-15 18:12 UTC. Time now 2018-Feb-23 03:02 UTC.
Position N 32°12' W 118°04'.
Warning: this ship's position is months out of date.

Type: Pleasure craft. MMSI: 366328490.

Date/timePositionNaut miles runAvg speedWind from/ knotsBaromVisibWave heightAir tempDewpointWater temp
2017-Oct-15 18:12N 32°12' W 118°04'2 7.5
2017-Oct-15 17:58N 32°11' W 118°04'15 8.9
2017-Oct-15 16:17N 31°56' W 118°05'3 9.2
2017-Oct-15 16:00N 31°53' W 118°06'5 9.4
2017-Oct-15 15:30N 31°48' W 118°06'5 9.3
2017-Oct-15 15:00N 31°44' W 118°07'9 8.6
2017-Oct-15 14:00N 31°35' W 118°08'  
2017-Oct-08 21:26N 32°28' W 117°22'6 8.3
2017-Oct-08 20:43N 32°33' W 117°24'2 8.5
2017-Oct-08 20:30N 32°35' W 117°25'4 8.4
2017-Oct-08 20:00N 32°39' W 117°27'4 8.4
2017-Oct-08 19:30N 32°43' W 117°29'4 8.4
2017-Oct-08 19:00N 32°47' W 117°30'4 8.4
2017-Oct-08 18:30N 32°51' W 117°31'4 8.6
2017-Oct-08 18:00N 32°55' W 117°33'4 8.5
2017-Oct-08 17:30N 32°59' W 117°35'4 8.4
2017-Oct-08 17:00N 33°03' W 117°37'4 8.6
2017-Oct-08 16:30N 33°07' W 117°39'4 8.5
2017-Oct-08 16:00N 33°11' W 117°41'4 8.4
2017-Oct-08 15:30N 33°14' W 117°43'4 8.2
2017-Oct-08 15:00N 33°18' W 117°45'4 8.3
2017-Oct-08 14:30N 33°22' W 117°47'4 8.3
2017-Oct-08 14:00N 33°26' W 117°49'4 8.1
2017-Oct-08 13:30N 33°30' W 117°50'7 5.8
2017-Oct-08 12:14N 33°36' W 117°54'1 0.6
2017-Oct-08 10:49N 33°37' W 117°55'0 0.0
2017-Oct-08 09:31N 33°37' W 117°55'0 0.0
2017-Oct-08 09:25N 33°37' W 117°55'0 0.0
2017-Oct-08 08:58N 33°37' W 117°55'0 0.0
2017-Oct-08 08:10N 33°37' W 117°55'0 0.0
2017-Oct-08 07:58N 33°37' W 117°55'0 0.0
2017-Oct-08 07:25N 33°37' W 117°55'0 0.0
2017-Oct-08 05:28N 33°37' W 117°55'0 0.0
2017-Oct-08 04:58N 33°37' W 117°55'0 0.0
2017-Oct-08 04:28N 33°37' W 117°55'0 0.0
2017-Oct-08 03:43N 33°37' W 117°55'0 0.0
2017-Oct-08 01:25N 33°37' W 117°55'0 0.0
2017-Oct-08 00:55N 33°37' W 117°55'0 0.0
2017-Oct-08 00:28N 33°37' W 117°55'0 0.0
2017-Oct-07 20:37N 33°37' W 117°55'0 0.0
2017-Oct-07 20:22N 33°37' W 117°55'0 0.0
2017-Oct-07 17:19N 33°37' W 117°55'0 0.0
2017-Oct-07 16:55N 33°37' W 117°55'0 0.0
2017-Oct-07 11:34N 33°37' W 117°55'0 0.0
2017-Oct-07 11:13N 33°37' W 117°55'0 0.0
2017-Oct-07 09:43N 33°37' W 117°55'0 0.0
2017-Oct-07 09:28N 33°37' W 117°55'0 0.0
2017-Oct-07 08:58N 33°37' W 117°55'0 0.0
2017-Oct-07 08:25N 33°37' W 117°55'0 0.0
2017-Oct-07 07:58N 33°37' W 117°55'0 0.0
2017-Oct-07 07:28N 33°37' W 117°55'0 0.0
2017-Oct-07 06:58N 33°37' W 117°55'0 0.0
2017-Oct-07 06:28N 33°37' W 117°55'0 0.0
2017-Oct-07 05:58N 33°37' W 117°55'0 0.0
2017-Oct-07 05:28N 33°37' W 117°55'0 0.0
2017-Oct-07 03:07N 33°37' W 117°55'0 0.0
2017-Oct-07 02:58N 33°37' W 117°55'0 0.0
2017-Oct-07 02:25N 33°37' W 117°55'0 0.0
2017-Oct-07 01:55N 33°37' W 117°55'0 0.0
2017-Oct-07 01:25N 33°37' W 117°55'0 0.0
2017-Oct-07 00:58N 33°37' W 117°55'0 0.0
2017-Oct-07 00:25N 33°37' W 117°55'0 0.0
2017-Oct-06 23:55N 33°37' W 117°55'0 0.0
2017-Oct-06 23:28N 33°37' W 117°55'0 0.0
2017-Oct-06 22:55N 33°37' W 117°55'0 0.0
2017-Oct-06 22:28N 33°37' W 117°55'0 0.0
2017-Oct-06 21:58N 33°37' W 117°55'0 0.0
2017-Oct-06 21:28N 33°37' W 117°55'0 0.0
2017-Oct-06 20:55N 33°37' W 117°55'0 0.0
2017-Oct-06 20:25N 33°37' W 117°55'0 0.0
2017-Oct-06 19:55N 33°37' W 117°55'0 0.0
2017-Oct-06 19:19N 33°37' W 117°55'0 0.0
2017-Oct-06 18:55N 33°37' W 117°55'0 0.0
2017-Oct-06 17:43N 33°37' W 117°55'0 0.0
2017-Oct-06 17:13N 33°37' W 117°55'0 0.0
2017-Oct-06 14:31N 33°37' W 117°55'0 0.1
2017-Oct-06 14:28N 33°37' W 117°55'0 0.0
2017-Oct-06 13:58N 33°37' W 117°55'0 0.0
2017-Oct-06 12:25N 33°37' W 117°55'0 0.0
2017-Oct-06 11:55N 33°37' W 117°55'0 0.0
2017-Oct-06 11:07N 33°37' W 117°55'0 0.0
2017-Oct-06 10:55N 33°37' W 117°55'0 0.0
2017-Oct-06 10:28N 33°37' W 117°55'0 0.0
2017-Oct-06 09:55N 33°37' W 117°55'0 0.0
2017-Oct-06 09:25N 33°37' W 117°55'0 0.0
2017-Oct-06 08:58N 33°37' W 117°55'0 0.0
2017-Oct-06 08:25N 33°37' W 117°55'0 0.0
2017-Oct-06 07:58N 33°37' W 117°55'0 0.0
2017-Oct-06 07:28N 33°37' W 117°55'0 0.0
2017-Oct-06 06:52N 33°37' W 117°55'0 0.0
2017-Oct-06 06:25N 33°37' W 117°55'0 0.0
2017-Oct-06 05:58N 33°37' W 117°55'0 0.0
2017-Oct-06 05:25N 33°37' W 117°55'0 0.0
2017-Oct-06 04:55N 33°37' W 117°55'0 0.0
2017-Oct-06 04:25N 33°37' W 117°55'0 0.0
2017-Oct-06 02:37N 33°37' W 117°55'0 0.0
2017-Oct-06 01:19N 33°37' W 117°55'0 0.0
2017-Oct-06 00:55N 33°37' W 117°55'0 0.0
2017-Oct-05 23:07N 33°37' W 117°55'0 0.0
2017-Oct-05 21:49N 33°37' W 117°55'0 0.0
2017-Oct-05 20:37N 33°37' W 117°55'0 0.0
2017-Oct-05 20:13N 33°37' W 117°55'0 0.0
2017-Oct-05 19:58N 33°37' W 117°55'0 0.0
2017-Oct-05 19:13N 33°37' W 117°55'0 0.0
2017-Oct-05 18:55N 33°37' W 117°55'  
Track history (hours):
 
Tides and Currents Weather Stations Pressure Air Temp Water Temp Dewpoint Dewpoint Depression Visibility Wind Speed Wind Dir Waves Ship Positions

Don Juan

Owner: LYDDON, JOHN A, Bakersfield, CA. More information available from US FCC via Universal Licensing System and Coast Guard Vessel Documentation Center.

Last reported at 2017-Oct-15 18:12 UTC. Time now 2018-Feb-23 03:02 UTC.
Position N 32°12' W 118°04'.
Warning: this ship's position is months out of date.

Type: Pleasure craft. MMSI: 366328490.

Date/timePositionNaut miles runAvg speedWind from/ knotsBaromVisibWave heightAir tempDewpointWater temp
2017-Oct-15 18:12N 32°12' W 118°04'2 7.5
2017-Oct-15 17:58N 32°11' W 118°04'15 8.9
2017-Oct-15 16:17N 31°56' W 118°05'3 9.2
2017-Oct-15 16:00N 31°53' W 118°06'5 9.4
2017-Oct-15 15:30N 31°48' W 118°06'5 9.3
2017-Oct-15 15:00N 31°44' W 118°07'9 8.6
2017-Oct-15 14:00N 31°35' W 118°08'  
2017-Oct-08 21:26N 32°28' W 117°22'6 8.3
2017-Oct-08 20:43N 32°33' W 117°24'2 8.5
2017-Oct-08 20:30N 32°35' W 117°25'4 8.4
2017-Oct-08 20:00N 32°39' W 117°27'4 8.4
2017-Oct-08 19:30N 32°43' W 117°29'4 8.4
2017-Oct-08 19:00N 32°47' W 117°30'4 8.4
2017-Oct-08 18:30N 32°51' W 117°31'4 8.6
2017-Oct-08 18:00N 32°55' W 117°33'4 8.5
2017-Oct-08 17:30N 32°59' W 117°35'4 8.4
2017-Oct-08 17:00N 33°03' W 117°37'4 8.6
2017-Oct-08 16:30N 33°07' W 117°39'4 8.5
2017-Oct-08 16:00N 33°11' W 117°41'4 8.4
2017-Oct-08 15:30N 33°14' W 117°43'4 8.2
2017-Oct-08 15:00N 33°18' W 117°45'4 8.3
2017-Oct-08 14:30N 33°22' W 117°47'4 8.3
2017-Oct-08 14:00N 33°26' W 117°49'4 8.1
2017-Oct-08 13:30N 33°30' W 117°50'7 5.8
2017-Oct-08 12:14N 33°36' W 117°54'1 0.6
2017-Oct-08 10:49N 33°37' W 117°55'0 0.0
2017-Oct-08 09:31N 33°37' W 117°55'0 0.0
2017-Oct-08 09:25N 33°37' W 117°55'0 0.0
2017-Oct-08 08:58N 33°37' W 117°55'0 0.0
2017-Oct-08 08:10N 33°37' W 117°55'0 0.0
2017-Oct-08 07:58N 33°37' W 117°55'0 0.0
2017-Oct-08 07:25N 33°37' W 117°55'0 0.0
2017-Oct-08 05:28N 33°37' W 117°55'0 0.0
2017-Oct-08 04:58N 33°37' W 117°55'0 0.0
2017-Oct-08 04:28N 33°37' W 117°55'0 0.0
2017-Oct-08 03:43N 33°37' W 117°55'0 0.0
2017-Oct-08 01:25N 33°37' W 117°55'0 0.0
2017-Oct-08 00:55N 33°37' W 117°55'0 0.0
2017-Oct-08 00:28N 33°37' W 117°55'0 0.0
2017-Oct-07 20:37N 33°37' W 117°55'0 0.0
2017-Oct-07 20:22N 33°37' W 117°55'0 0.0
2017-Oct-07 17:19N 33°37' W 117°55'0 0.0
2017-Oct-07 16:55N 33°37' W 117°55'0 0.0
2017-Oct-07 11:34N 33°37' W 117°55'0 0.0
2017-Oct-07 11:13N 33°37' W 117°55'0 0.0
2017-Oct-07 09:43N 33°37' W 117°55'0 0.0
2017-Oct-07 09:28N 33°37' W 117°55'0 0.0
2017-Oct-07 08:58N 33°37' W 117°55'0 0.0
2017-Oct-07 08:25N 33°37' W 117°55'0 0.0
2017-Oct-07 07:58N 33°37' W 117°55'0 0.0
2017-Oct-07 07:28N 33°37' W 117°55'0 0.0
2017-Oct-07 06:58N 33°37' W 117°55'0 0.0
2017-Oct-07 06:28N 33°37' W 117°55'0 0.0
2017-Oct-07 05:58N 33°37' W 117°55'0 0.0
2017-Oct-07 05:28N 33°37' W 117°55'0 0.0
2017-Oct-07 03:07N 33°37' W 117°55'0 0.0
2017-Oct-07 02:58N 33°37' W 117°55'0 0.0
2017-Oct-07 02:25N 33°37' W 117°55'0 0.0
2017-Oct-07 01:55N 33°37' W 117°55'0 0.0
2017-Oct-07 01:25N 33°37' W 117°55'0 0.0
2017-Oct-07 00:58N 33°37' W 117°55'0 0.0
2017-Oct-07 00:25N 33°37' W 117°55'0 0.0
2017-Oct-06 23:55N 33°37' W 117°55'0 0.0
2017-Oct-06 23:28N 33°37' W 117°55'0 0.0
2017-Oct-06 22:55N 33°37' W 117°55'0 0.0
2017-Oct-06 22:28N 33°37' W 117°55'0 0.0
2017-Oct-06 21:58N 33°37' W 117°55'0 0.0
2017-Oct-06 21:28N 33°37' W 117°55'0 0.0
2017-Oct-06 20:55N 33°37' W 117°55'0 0.0
2017-Oct-06 20:25N 33°37' W 117°55'0 0.0
2017-Oct-06 19:55N 33°37' W 117°55'0 0.0
2017-Oct-06 19:19N 33°37' W 117°55'0 0.0
2017-Oct-06 18:55N 33°37' W 117°55'0 0.0
2017-Oct-06 17:43N 33°37' W 117°55'0 0.0
2017-Oct-06 17:13N 33°37' W 117°55'0 0.0
2017-Oct-06 14:31N 33°37' W 117°55'0 0.1
2017-Oct-06 14:28N 33°37' W 117°55'0 0.0
2017-Oct-06 13:58N 33°37' W 117°55'0 0.0
2017-Oct-06 12:25N 33°37' W 117°55'0 0.0
2017-Oct-06 11:55N 33°37' W 117°55'0 0.0
2017-Oct-06 11:07N 33°37' W 117°55'0 0.0
2017-Oct-06 10:55N 33°37' W 117°55'0 0.0
2017-Oct-06 10:28N 33°37' W 117°55'0 0.0
2017-Oct-06 09:55N 33°37' W 117°55'0 0.0
2017-Oct-06 09:25N 33°37' W 117°55'0 0.0
2017-Oct-06 08:58N 33°37' W 117°55'0 0.0
2017-Oct-06 08:25N 33°37' W 117°55'0 0.0
2017-Oct-06 07:58N 33°37' W 117°55'0 0.0
2017-Oct-06 07:28N 33°37' W 117°55'0 0.0
2017-Oct-06 06:52N 33°37' W 117°55'0 0.0
2017-Oct-06 06:25N 33°37' W 117°55'0 0.0
2017-Oct-06 05:58N 33°37' W 117°55'0 0.0
2017-Oct-06 05:25N 33°37' W 117°55'0 0.0
2017-Oct-06 04:55N 33°37' W 117°55'0 0.0
2017-Oct-06 04:25N 33°37' W 117°55'0 0.0
2017-Oct-06 02:37N 33°37' W 117°55'0 0.0
2017-Oct-06 01:19N 33°37' W 117°55'0 0.0
2017-Oct-06 00:55N 33°37' W 117°55'0 0.0
2017-Oct-05 23:07N 33°37' W 117°55'0 0.0
2017-Oct-05 21:49N 33°37' W 117°55'0 0.0
2017-Oct-05 20:37N 33°37' W 117°55'0 0.0
2017-Oct-05 20:13N 33°37' W 117°55'0 0.0
2017-Oct-05 19:58N 33°37' W 117°55'0 0.0
2017-Oct-05 19:13N 33°37' W 117°55'0 0.0
2017-Oct-05 18:55N 33°37' W 117°55'  

Dump ship's entire track history